sensor_id;sensor_type;location;lat;lon;timestamp;P1;durP1;ratioP1;P2;durP2;ratioP2
76848;SDS011;65814;51.134;16.980;2023-03-31T00:01:08;7.50;;;3.90;;
76848;SDS011;65814;51.134;16.980;2023-03-31T00:03:35;9.60;;;5.00;;
76848;SDS011;65814;51.134;16.980;2023-03-31T00:06:05;10.40;;;5.60;;
76848;SDS011;65814;51.134;16.980;2023-03-31T00:08:34;12.00;;;5.70;;
76848;SDS011;65814;51.134;16.980;2023-03-31T00:11:03;14.10;;;6.80;;
76848;SDS011;65814;51.134;16.980;2023-03-31T00:13:32;12.60;;;6.10;;
76848;SDS011;65814;51.134;16.980;2023-03-31T00:16:04;10.90;;;5.50;;
76848;SDS011;65814;51.134;16.980;2023-03-31T00:18:35;6.80;;;4.10;;
76848;SDS011;65814;51.134;16.980;2023-03-31T00:21:08;6.70;;;3.20;;
76848;SDS011;65814;51.134;16.980;2023-03-31T00:23:41;5.80;;;3.80;;
76848;SDS011;65814;51.134;16.980;2023-03-31T00:26:09;6.40;;;3.40;;
76848;SDS011;65814;51.134;16.980;2023-03-31T00:28:37;5.80;;;3.50;;
76848;SDS011;65814;51.134;16.980;2023-03-31T00:31:05;7.70;;;3.20;;
76848;SDS011;65814;51.134;16.980;2023-03-31T00:33:33;7.10;;;3.50;;
76848;SDS011;65814;51.134;16.980;2023-03-31T00:36:01;6.30;;;4.00;;
76848;SDS011;65814;51.134;16.980;2023-03-31T00:38:33;8.10;;;3.50;;
76848;SDS011;65814;51.134;16.980;2023-03-31T00:41:02;8.20;;;3.50;;
76848;SDS011;65814;51.134;16.980;2023-03-31T00:46:09;5.90;;;3.50;;
76848;SDS011;65814;51.134;16.980;2023-03-31T00:48:49;7.00;;;4.40;;
76848;SDS011;65814;51.134;16.980;2023-03-31T00:51:18;5.90;;;3.50;;
76848;SDS011;65814;51.134;16.980;2023-03-31T00:53:49;6.80;;;3.30;;
76848;SDS011;65814;51.134;16.980;2023-03-31T00:56:22;4.40;;;3.40;;
76848;SDS011;65814;51.134;16.980;2023-03-31T00:58:50;5.40;;;3.10;;
76848;SDS011;65814;51.134;16.980;2023-03-31T01:01:20;7.00;;;3.70;;
76848;SDS011;65814;51.134;16.980;2023-03-31T01:03:51;7.40;;;4.20;;
76848;SDS011;65814;51.134;16.980;2023-03-31T01:06:20;5.20;;;2.90;;
76848;SDS011;65814;51.134;16.980;2023-03-31T01:08:50;4.40;;;3.00;;
76848;SDS011;65814;51.134;16.980;2023-03-31T01:11:19;7.10;;;2.80;;
76848;SDS011;65814;51.134;16.980;2023-03-31T01:13:49;4.40;;;3.00;;
76848;SDS011;65814;51.134;16.980;2023-03-31T01:16:18;4.80;;;3.30;;
76848;SDS011;65814;51.134;16.980;2023-03-31T01:18:47;5.90;;;3.30;;
76848;SDS011;65814;51.134;16.980;2023-03-31T01:24:18;10.40;;;3.90;;
76848;SDS011;65814;51.134;16.980;2023-03-31T01:27:23;7.50;;;3.40;;
76848;SDS011;65814;51.134;16.980;2023-03-31T01:38:41;4.70;;;3.20;;
76848;SDS011;65814;51.134;16.980;2023-03-31T01:41:44;6.30;;;4.40;;
76848;SDS011;65814;51.134;16.980;2023-03-31T01:44:44;7.00;;;4.90;;
76848;SDS011;65814;51.134;16.980;2023-03-31T01:47:15;5.80;;;3.40;;
76848;SDS011;65814;51.134;16.980;2023-03-31T01:49:52;6.80;;;4.50;;
76848;SDS011;65814;51.134;16.980;2023-03-31T01:52:26;7.90;;;3.80;;
76848;SDS011;65814;51.134;16.980;2023-03-31T01:57:35;8.20;;;3.50;;
76848;SDS011;65814;51.134;16.980;2023-03-31T02:02:44;5.40;;;3.50;;
76848;SDS011;65814;51.134;16.980;2023-03-31T02:05:21;7.10;;;4.40;;
76848;SDS011;65814;51.134;16.980;2023-03-31T02:07:55;8.60;;;4.10;;
76848;SDS011;65814;51.134;16.980;2023-03-31T02:10:41;7.00;;;3.60;;
76848;SDS011;65814;51.134;16.980;2023-03-31T02:13:11;6.30;;;3.60;;
76848;SDS011;65814;51.134;16.980;2023-03-31T02:15:41;9.20;;;4.50;;
76848;SDS011;65814;51.134;16.980;2023-03-31T02:18:12;7.60;;;3.20;;
76848;SDS011;65814;51.134;16.980;2023-03-31T02:20:44;7.30;;;4.30;;
76848;SDS011;65814;51.134;16.980;2023-03-31T02:23:15;5.80;;;3.10;;
76848;SDS011;65814;51.134;16.980;2023-03-31T02:25:48;7.40;;;4.10;;
76848;SDS011;65814;51.134;16.980;2023-03-31T02:28:21;7.70;;;4.00;;
76848;SDS011;65814;51.134;16.980;2023-03-31T02:31:09;7.20;;;4.60;;
76848;SDS011;65814;51.134;16.980;2023-03-31T02:33:44;7.30;;;3.60;;
76848;SDS011;65814;51.134;16.980;2023-03-31T02:36:14;9.00;;;5.60;;
76848;SDS011;65814;51.134;16.980;2023-03-31T02:38:43;6.50;;;4.50;;
76848;SDS011;65814;51.134;16.980;2023-03-31T02:41:13;6.10;;;4.10;;
76848;SDS011;65814;51.134;16.980;2023-03-31T02:43:41;6.50;;;4.10;;
76848;SDS011;65814;51.134;16.980;2023-03-31T02:46:09;9.80;;;5.00;;
76848;SDS011;65814;51.134;16.980;2023-03-31T02:48:40;7.40;;;4.40;;
76848;SDS011;65814;51.134;16.980;2023-03-31T02:51:18;6.70;;;4.80;;
76848;SDS011;65814;51.134;16.980;2023-03-31T03:04:55;7.30;;;5.30;;
76848;SDS011;65814;51.134;16.980;2023-03-31T03:15:46;7.90;;;5.10;;
76848;SDS011;65814;51.134;16.980;2023-03-31T03:18:16;8.80;;;5.10;;
76848;SDS011;65814;51.134;16.980;2023-03-31T03:20:44;11.50;;;6.60;;
76848;SDS011;65814;51.134;16.980;2023-03-31T03:23:17;10.00;;;6.10;;
76848;SDS011;65814;51.134;16.980;2023-03-31T03:25:46;9.00;;;5.80;;
76848;SDS011;65814;51.134;16.980;2023-03-31T03:28:14;10.20;;;5.30;;
76848;SDS011;65814;51.134;16.980;2023-03-31T03:30:42;8.80;;;5.40;;
76848;SDS011;65814;51.134;16.980;2023-03-31T03:33:10;7.70;;;5.30;;
76848;SDS011;65814;51.134;16.980;2023-03-31T03:35:43;9.00;;;5.70;;
76848;SDS011;65814;51.134;16.980;2023-03-31T03:38:12;9.20;;;5.50;;
76848;SDS011;65814;51.134;16.980;2023-03-31T03:40:40;8.70;;;5.40;;
76848;SDS011;65814;51.134;16.980;2023-03-31T03:43:08;11.40;;;6.10;;
76848;SDS011;65814;51.134;16.980;2023-03-31T03:45:36;9.40;;;5.70;;
76848;SDS011;65814;51.134;16.980;2023-03-31T03:48:04;7.70;;;5.70;;
76848;SDS011;65814;51.134;16.980;2023-03-31T03:50:34;8.60;;;5.30;;
76848;SDS011;65814;51.134;16.980;2023-03-31T03:53:03;9.40;;;5.80;;
76848;SDS011;65814;51.134;16.980;2023-03-31T03:55:33;8.40;;;4.90;;
76848;SDS011;65814;51.134;16.980;2023-03-31T03:58:01;7.60;;;5.60;;
76848;SDS011;65814;51.134;16.980;2023-03-31T04:00:29;9.20;;;6.00;;
76848;SDS011;65814;51.134;16.980;2023-03-31T04:02:57;10.80;;;7.00;;
76848;SDS011;65814;51.134;16.980;2023-03-31T04:05:26;13.70;;;7.60;;
76848;SDS011;65814;51.134;16.980;2023-03-31T04:07:54;12.70;;;7.10;;
76848;SDS011;65814;51.134;16.980;2023-03-31T04:10:22;9.70;;;6.70;;
76848;SDS011;65814;51.134;16.980;2023-03-31T04:12:50;8.30;;;5.60;;
76848;SDS011;65814;51.134;16.980;2023-03-31T04:15:18;10.00;;;6.90;;
76848;SDS011;65814;51.134;16.980;2023-03-31T04:17:46;9.70;;;7.40;;
76848;SDS011;65814;51.134;16.980;2023-03-31T04:20:17;9.50;;;6.80;;
76848;SDS011;65814;51.134;16.980;2023-03-31T04:22:46;12.20;;;6.80;;
76848;SDS011;65814;51.134;16.980;2023-03-31T04:25:17;16.50;;;6.20;;
76848;SDS011;65814;51.134;16.980;2023-03-31T04:27:46;11.10;;;6.20;;
76848;SDS011;65814;51.134;16.980;2023-03-31T04:30:17;8.90;;;6.60;;
76848;SDS011;65814;51.134;16.980;2023-03-31T04:33:10;9.30;;;6.00;;
76848;SDS011;65814;51.134;16.980;2023-03-31T04:35:38;10.50;;;6.80;;
76848;SDS011;65814;51.134;16.980;2023-03-31T04:38:16;8.80;;;5.80;;
76848;SDS011;65814;51.134;16.980;2023-03-31T04:40:51;8.00;;;5.60;;
76848;SDS011;65814;51.134;16.980;2023-03-31T04:43:20;9.20;;;5.40;;
76848;SDS011;65814;51.134;16.980;2023-03-31T04:45:48;12.40;;;6.40;;
76848;SDS011;65814;51.134;16.980;2023-03-31T04:48:16;8.00;;;5.60;;
76848;SDS011;65814;51.134;16.980;2023-03-31T04:50:45;9.40;;;5.60;;
76848;SDS011;65814;51.134;16.980;2023-03-31T04:53:13;10.10;;;6.70;;
76848;SDS011;65814;51.134;16.980;2023-03-31T04:55:41;10.70;;;6.90;;
76848;SDS011;65814;51.134;16.980;2023-03-31T04:58:08;9.30;;;7.00;;
76848;SDS011;65814;51.134;16.980;2023-03-31T05:00:36;8.00;;;6.20;;
76848;SDS011;65814;51.134;16.980;2023-03-31T05:03:05;9.20;;;5.90;;
76848;SDS011;65814;51.134;16.980;2023-03-31T05:05:33;7.90;;;5.80;;
76848;SDS011;65814;51.134;16.980;2023-03-31T05:08:01;9.00;;;6.00;;
76848;SDS011;65814;51.134;16.980;2023-03-31T05:10:30;9.80;;;6.10;;
76848;SDS011;65814;51.134;16.980;2023-03-31T05:12:58;8.00;;;5.20;;
76848;SDS011;65814;51.134;16.980;2023-03-31T05:15:26;8.80;;;5.90;;
76848;SDS011;65814;51.134;16.980;2023-03-31T05:17:56;11.50;;;5.60;;
76848;SDS011;65814;51.134;16.980;2023-03-31T05:20:24;8.60;;;6.80;;
76848;SDS011;65814;51.134;16.980;2023-03-31T05:22:52;9.10;;;6.80;;
76848;SDS011;65814;51.134;16.980;2023-03-31T05:25:20;7.80;;;6.60;;
76848;SDS011;65814;51.134;16.980;2023-03-31T05:27:49;8.10;;;5.90;;
76848;SDS011;65814;51.134;16.980;2023-03-31T05:30:17;9.50;;;6.20;;
76848;SDS011;65814;51.134;16.980;2023-03-31T05:32:45;8.00;;;5.10;;
76848;SDS011;65814;51.134;16.980;2023-03-31T05:35:13;9.30;;;6.00;;
76848;SDS011;65814;51.134;16.980;2023-03-31T05:37:41;7.40;;;5.70;;
76848;SDS011;65814;51.134;16.980;2023-03-31T05:40:09;11.80;;;5.90;;
76848;SDS011;65814;51.134;16.980;2023-03-31T05:42:38;9.30;;;5.60;;
76848;SDS011;65814;51.134;16.980;2023-03-31T05:45:06;11.90;;;6.30;;
76848;SDS011;65814;51.134;16.980;2023-03-31T05:47:36;8.60;;;5.50;;
76848;SDS011;65814;51.134;16.980;2023-03-31T05:50:04;9.50;;;5.50;;
76848;SDS011;65814;51.134;16.980;2023-03-31T05:52:35;10.30;;;5.50;;
76848;SDS011;65814;51.134;16.980;2023-03-31T05:55:03;11.90;;;6.60;;
76848;SDS011;65814;51.134;16.980;2023-03-31T05:57:32;10.10;;;6.10;;
76848;SDS011;65814;51.134;16.980;2023-03-31T06:00:00;10.50;;;6.60;;
76848;SDS011;65814;51.134;16.980;2023-03-31T06:02:29;9.40;;;6.00;;
76848;SDS011;65814;51.134;16.980;2023-03-31T06:04:57;13.90;;;8.00;;
76848;SDS011;65814;51.134;16.980;2023-03-31T06:07:25;13.20;;;6.60;;
76848;SDS011;65814;51.134;16.980;2023-03-31T06:09:53;16.30;;;8.10;;
76848;SDS011;65814;51.134;16.980;2023-03-31T06:12:21;11.30;;;6.90;;
76848;SDS011;65814;51.134;16.980;2023-03-31T06:14:49;9.20;;;6.50;;
76848;SDS011;65814;51.134;16.980;2023-03-31T06:17:17;10.00;;;6.40;;
76848;SDS011;65814;51.134;16.980;2023-03-31T06:19:46;10.30;;;5.90;;
76848;SDS011;65814;51.134;16.980;2023-03-31T06:22:13;11.60;;;6.50;;
76848;SDS011;65814;51.134;16.980;2023-03-31T06:24:41;10.50;;;7.10;;
76848;SDS011;65814;51.134;16.980;2023-03-31T06:27:09;10.40;;;7.30;;
76848;SDS011;65814;51.134;16.980;2023-03-31T06:29:37;9.00;;;6.40;;
76848;SDS011;65814;51.134;16.980;2023-03-31T06:32:06;14.60;;;6.40;;
76848;SDS011;65814;51.134;16.980;2023-03-31T06:34:34;9.40;;;6.00;;
76848;SDS011;65814;51.134;16.980;2023-03-31T06:37:02;13.10;;;7.50;;
76848;SDS011;65814;51.134;16.980;2023-03-31T06:39:30;9.20;;;6.50;;
76848;SDS011;65814;51.134;16.980;2023-03-31T06:41:58;8.90;;;5.90;;
76848;SDS011;65814;51.134;16.980;2023-03-31T06:44:26;12.10;;;6.00;;
76848;SDS011;65814;51.134;16.980;2023-03-31T06:46:55;10.40;;;6.60;;
76848;SDS011;65814;51.134;16.980;2023-03-31T06:49:23;10.70;;;5.90;;
76848;SDS011;65814;51.134;16.980;2023-03-31T06:51:51;9.50;;;6.10;;
76848;SDS011;65814;51.134;16.980;2023-03-31T06:54:19;8.10;;;6.40;;
76848;SDS011;65814;51.134;16.980;2023-03-31T06:56:47;8.40;;;5.90;;
76848;SDS011;65814;51.134;16.980;2023-03-31T06:59:15;11.00;;;5.60;;
76848;SDS011;65814;51.134;16.980;2023-03-31T07:01:43;9.10;;;6.80;;
76848;SDS011;65814;51.134;16.980;2023-03-31T07:04:12;9.20;;;5.50;;
76848;SDS011;65814;51.134;16.980;2023-03-31T07:06:40;7.50;;;6.10;;
76848;SDS011;65814;51.134;16.980;2023-03-31T07:09:08;7.90;;;5.50;;
76848;SDS011;65814;51.134;16.980;2023-03-31T07:11:37;7.30;;;4.90;;
76848;SDS011;65814;51.134;16.980;2023-03-31T07:14:04;9.70;;;6.30;;
76848;SDS011;65814;51.134;16.980;2023-03-31T07:16:35;7.80;;;5.80;;
76848;SDS011;65814;51.134;16.980;2023-03-31T07:19:03;9.40;;;5.70;;
76848;SDS011;65814;51.134;16.980;2023-03-31T07:21:33;7.50;;;5.80;;
76848;SDS011;65814;51.134;16.980;2023-03-31T07:24:01;10.50;;;5.50;;
76848;SDS011;65814;51.134;16.980;2023-03-31T07:26:29;11.40;;;6.60;;
76848;SDS011;65814;51.134;16.980;2023-03-31T07:28:58;11.70;;;6.60;;
76848;SDS011;65814;51.134;16.980;2023-03-31T07:31:26;11.90;;;7.80;;
76848;SDS011;65814;51.134;16.980;2023-03-31T07:33:54;13.20;;;6.90;;
76848;SDS011;65814;51.134;16.980;2023-03-31T07:36:23;10.00;;;6.60;;
76848;SDS011;65814;51.134;16.980;2023-03-31T07:38:51;11.20;;;6.70;;
76848;SDS011;65814;51.134;16.980;2023-03-31T07:41:20;10.40;;;6.70;;
76848;SDS011;65814;51.134;16.980;2023-03-31T07:43:48;10.50;;;7.60;;
76848;SDS011;65814;51.134;16.980;2023-03-31T07:46:21;14.90;;;7.90;;
76848;SDS011;65814;51.134;16.980;2023-03-31T07:48:52;11.30;;;7.90;;
76848;SDS011;65814;51.134;16.980;2023-03-31T07:51:22;12.80;;;8.00;;
76848;SDS011;65814;51.134;16.980;2023-03-31T07:53:52;12.30;;;7.70;;
76848;SDS011;65814;51.134;16.980;2023-03-31T07:56:21;11.20;;;8.20;;
76848;SDS011;65814;51.134;16.980;2023-03-31T07:58:50;12.40;;;8.20;;
76848;SDS011;65814;51.134;16.980;2023-03-31T08:01:24;12.10;;;8.50;;
76848;SDS011;65814;51.134;16.980;2023-03-31T08:03:56;12.00;;;7.50;;
76848;SDS011;65814;51.134;16.980;2023-03-31T08:06:25;12.40;;;7.70;;
76848;SDS011;65814;51.134;16.980;2023-03-31T08:08:55;10.30;;;7.60;;
76848;SDS011;65814;51.134;16.980;2023-03-31T08:11:23;11.60;;;7.70;;
76848;SDS011;65814;51.134;16.980;2023-03-31T08:13:52;10.60;;;8.30;;
76848;SDS011;65814;51.134;16.980;2023-03-31T08:16:20;12.10;;;7.60;;
76848;SDS011;65814;51.134;16.980;2023-03-31T08:18:48;11.40;;;7.70;;
76848;SDS011;65814;51.134;16.980;2023-03-31T08:21:16;9.50;;;6.60;;
76848;SDS011;65814;51.134;16.980;2023-03-31T08:23:44;9.80;;;5.90;;
76848;SDS011;65814;51.134;16.980;2023-03-31T08:26:15;8.70;;;6.20;;
76848;SDS011;65814;51.134;16.980;2023-03-31T08:28:45;7.80;;;6.10;;
76848;SDS011;65814;51.134;16.980;2023-03-31T08:31:16;10.10;;;6.70;;
76848;SDS011;65814;51.134;16.980;2023-03-31T08:33:53;8.20;;;6.30;;
76848;SDS011;65814;51.134;16.980;2023-03-31T08:36:21;11.10;;;7.70;;
76848;SDS011;65814;51.134;16.980;2023-03-31T08:38:50;11.30;;;7.90;;
76848;SDS011;65814;51.134;16.980;2023-03-31T08:47:03;11.60;;;6.90;;
76848;SDS011;65814;51.134;16.980;2023-03-31T08:49:51;11.40;;;6.50;;
76848;SDS011;65814;51.134;16.980;2023-03-31T08:52:25;11.20;;;7.10;;
76848;SDS011;65814;51.134;16.980;2023-03-31T08:54:58;11.70;;;7.20;;
76848;SDS011;65814;51.134;16.980;2023-03-31T08:57:37;10.80;;;7.00;;
76848;SDS011;65814;51.134;16.980;2023-03-31T09:00:15;11.30;;;6.20;;
76848;SDS011;65814;51.134;16.980;2023-03-31T09:02:55;10.40;;;7.30;;
76848;SDS011;65814;51.134;16.980;2023-03-31T09:14:02;7.50;;;5.20;;
76848;SDS011;65814;51.134;16.980;2023-03-31T09:19:42;5.70;;;4.40;;
76848;SDS011;65814;51.134;16.980;2023-03-31T09:22:24;8.20;;;4.40;;
76848;SDS011;65814;51.134;16.980;2023-03-31T09:25:01;7.30;;;3.70;;
76848;SDS011;65814;51.134;16.980;2023-03-31T09:27:38;4.50;;;3.30;;
76848;SDS011;65814;51.134;16.980;2023-03-31T09:30:10;5.30;;;3.20;;
76848;SDS011;65814;51.134;16.980;2023-03-31T09:32:43;6.70;;;3.10;;
76848;SDS011;65814;51.134;16.980;2023-03-31T09:35:18;5.20;;;3.40;;
76848;SDS011;65814;51.134;16.980;2023-03-31T09:37:52;6.80;;;3.10;;
76848;SDS011;65814;51.134;16.980;2023-03-31T09:40:24;8.20;;;3.90;;
76848;SDS011;65814;51.134;16.980;2023-03-31T09:42:59;5.10;;;3.70;;
76848;SDS011;65814;51.134;16.980;2023-03-31T09:45:30;9.80;;;4.40;;
76848;SDS011;65814;51.134;16.980;2023-03-31T09:48:04;6.40;;;3.80;;
76848;SDS011;65814;51.134;16.980;2023-03-31T09:50:38;6.70;;;3.90;;
76848;SDS011;65814;51.134;16.980;2023-03-31T09:53:25;8.10;;;4.30;;
76848;SDS011;65814;51.134;16.980;2023-03-31T09:56:00;6.00;;;4.00;;
76848;SDS011;65814;51.134;16.980;2023-03-31T09:58:29;6.70;;;4.50;;
76848;SDS011;65814;51.134;16.980;2023-03-31T10:01:04;6.20;;;4.90;;
76848;SDS011;65814;51.134;16.980;2023-03-31T10:03:48;8.50;;;4.70;;
76848;SDS011;65814;51.134;16.980;2023-03-31T10:06:17;6.70;;;4.90;;
76848;SDS011;65814;51.134;16.980;2023-03-31T10:08:48;7.60;;;4.80;;
76848;SDS011;65814;51.134;16.980;2023-03-31T10:11:16;7.80;;;4.50;;
76848;SDS011;65814;51.134;16.980;2023-03-31T10:13:45;8.90;;;4.80;;
76848;SDS011;65814;51.134;16.980;2023-03-31T10:16:22;8.90;;;4.60;;
76848;SDS011;65814;51.134;16.980;2023-03-31T10:19:00;6.60;;;4.50;;
76848;SDS011;65814;51.134;16.980;2023-03-31T10:21:38;5.70;;;4.30;;
76848;SDS011;65814;51.134;16.980;2023-03-31T10:24:08;8.40;;;5.00;;
76848;SDS011;65814;51.134;16.980;2023-03-31T10:26:38;11.00;;;4.80;;
76848;SDS011;65814;51.134;16.980;2023-03-31T10:29:10;7.30;;;4.40;;
76848;SDS011;65814;51.134;16.980;2023-03-31T10:31:39;7.40;;;4.50;;
76848;SDS011;65814;51.134;16.980;2023-03-31T10:34:11;7.60;;;4.80;;
76848;SDS011;65814;51.134;16.980;2023-03-31T10:36:47;9.50;;;4.20;;
76848;SDS011;65814;51.134;16.980;2023-03-31T10:39:17;9.10;;;4.70;;
76848;SDS011;65814;51.134;16.980;2023-03-31T10:41:52;5.30;;;4.10;;
76848;SDS011;65814;51.134;16.980;2023-03-31T10:44:33;6.30;;;4.30;;
76848;SDS011;65814;51.134;16.980;2023-03-31T10:49:41;5.20;;;4.30;;
76848;SDS011;65814;51.134;16.980;2023-03-31T10:52:18;8.80;;;4.90;;
76848;SDS011;65814;51.134;16.980;2023-03-31T10:54:54;4.70;;;3.80;;
76848;SDS011;65814;51.134;16.980;2023-03-31T10:57:29;5.30;;;3.90;;
76848;SDS011;65814;51.134;16.980;2023-03-31T11:00:11;6.60;;;4.10;;
76848;SDS011;65814;51.134;16.980;2023-03-31T11:08:27;5.80;;;4.10;;
76848;SDS011;65814;51.134;16.980;2023-03-31T11:13:40;9.30;;;3.90;;
76848;SDS011;65814;51.134;16.980;2023-03-31T11:16:19;4.90;;;3.60;;
76848;SDS011;65814;51.134;16.980;2023-03-31T11:22:12;6.40;;;3.50;;
76848;SDS011;65814;51.134;16.980;2023-03-31T11:32:15;6.10;;;3.60;;
76848;SDS011;65814;51.134;16.980;2023-03-31T11:34:53;5.60;;;3.30;;
76848;SDS011;65814;51.134;16.980;2023-03-31T11:37:45;7.20;;;4.20;;
76848;SDS011;65814;51.134;16.980;2023-03-31T11:45:48;9.00;;;3.80;;
76848;SDS011;65814;51.134;16.980;2023-03-31T11:48:25;9.90;;;4.00;;
76848;SDS011;65814;51.134;16.980;2023-03-31T11:51:01;7.70;;;3.50;;
76848;SDS011;65814;51.134;16.980;2023-03-31T11:53:31;5.70;;;3.50;;
76848;SDS011;65814;51.134;16.980;2023-03-31T11:56:01;9.60;;;3.70;;
76848;SDS011;65814;51.134;16.980;2023-03-31T12:01:42;8.20;;;3.20;;
76848;SDS011;65814;51.134;16.980;2023-03-31T12:07:16;5.60;;;3.20;;
76848;SDS011;65814;51.134;16.980;2023-03-31T12:10:19;8.00;;;3.20;;
76848;SDS011;65814;51.134;16.980;2023-03-31T12:15:30;6.20;;;3.00;;
76848;SDS011;65814;51.134;16.980;2023-03-31T12:18:14;9.10;;;3.70;;
76848;SDS011;65814;51.134;16.980;2023-03-31T12:20:46;6.20;;;3.00;;
76848;SDS011;65814;51.134;16.980;2023-03-31T12:23:27;4.60;;;3.00;;
76848;SDS011;65814;51.134;16.980;2023-03-31T12:25:59;7.50;;;2.80;;
76848;SDS011;65814;51.134;16.980;2023-03-31T12:28:29;5.40;;;3.00;;
76848;SDS011;65814;51.134;16.980;2023-03-31T12:30:59;5.40;;;2.80;;
76848;SDS011;65814;51.134;16.980;2023-03-31T12:33:31;5.30;;;2.70;;
76848;SDS011;65814;51.134;16.980;2023-03-31T12:36:22;6.20;;;2.80;;
76848;SDS011;65814;51.134;16.980;2023-03-31T12:42:11;5.60;;;2.70;;
76848;SDS011;65814;51.134;16.980;2023-03-31T12:44:59;5.00;;;2.10;;
76848;SDS011;65814;51.134;16.980;2023-03-31T12:58:55;8.20;;;2.60;;
76848;SDS011;65814;51.134;16.980;2023-03-31T13:02:10;7.50;;;2.40;;
76848;SDS011;65814;51.134;16.980;2023-03-31T13:04:42;6.20;;;3.30;;
76848;SDS011;65814;51.134;16.980;2023-03-31T13:07:11;4.90;;;2.90;;
76848;SDS011;65814;51.134;16.980;2023-03-31T13:10:55;5.80;;;3.30;;
76848;SDS011;65814;51.134;16.980;2023-03-31T13:12:58;7.90;;;3.10;;
76848;SDS011;65814;51.134;16.980;2023-03-31T13:15:28;5.50;;;3.10;;
76848;SDS011;65814;51.134;16.980;2023-03-31T13:18:00;7.80;;;3.30;;
76848;SDS011;65814;51.134;16.980;2023-03-31T13:20:37;6.10;;;2.90;;
76848;SDS011;65814;51.134;16.980;2023-03-31T13:23:20;5.20;;;2.60;;
76848;SDS011;65814;51.134;16.980;2023-03-31T13:25:52;3.10;;;2.40;;
76848;SDS011;65814;51.134;16.980;2023-03-31T13:28:25;6.70;;;2.90;;
76848;SDS011;65814;51.134;16.980;2023-03-31T13:31:07;4.20;;;2.90;;
76848;SDS011;65814;51.134;16.980;2023-03-31T13:33:42;4.60;;;3.20;;
76848;SDS011;65814;51.134;16.980;2023-03-31T13:36:22;4.80;;;2.90;;
76848;SDS011;65814;51.134;16.980;2023-03-31T13:39:10;5.60;;;3.30;;
76848;SDS011;65814;51.134;16.980;2023-03-31T13:50:34;7.80;;;4.40;;
76848;SDS011;65814;51.134;16.980;2023-03-31T13:58:39;8.80;;;3.70;;
76848;SDS011;65814;51.134;16.980;2023-03-31T14:01:27;6.10;;;4.10;;
76848;SDS011;65814;51.134;16.980;2023-03-31T14:06:55;9.40;;;4.40;;
76848;SDS011;65814;51.134;16.980;2023-03-31T14:09:36;8.20;;;4.30;;
76848;SDS011;65814;51.134;16.980;2023-03-31T14:17:35;11.10;;;4.30;;
76848;SDS011;65814;51.134;16.980;2023-03-31T14:22:51;7.10;;;4.10;;
76848;SDS011;65814;51.134;16.980;2023-03-31T14:25:45;8.60;;;4.60;;
76848;SDS011;65814;51.134;16.980;2023-03-31T14:36:58;8.30;;;4.70;;
76848;SDS011;65814;51.134;16.980;2023-03-31T14:39:31;8.50;;;5.20;;
76848;SDS011;65814;51.134;16.980;2023-03-31T14:42:03;6.70;;;4.20;;
76848;SDS011;65814;51.134;16.980;2023-03-31T14:44:33;6.30;;;4.20;;
76848;SDS011;65814;51.134;16.980;2023-03-31T14:47:04;10.40;;;5.50;;
76848;SDS011;65814;51.134;16.980;2023-03-31T14:49:41;9.80;;;5.00;;
76848;SDS011;65814;51.134;16.980;2023-03-31T14:52:14;9.10;;;6.90;;
76848;SDS011;65814;51.134;16.980;2023-03-31T14:54:45;30.70;;;18.40;;
76848;SDS011;65814;51.134;16.980;2023-03-31T14:57:16;27.00;;;19.10;;
76848;SDS011;65814;51.134;16.980;2023-03-31T14:59:47;27.70;;;18.10;;
76848;SDS011;65814;51.134;16.980;2023-03-31T15:02:18;21.60;;;11.90;;
76848;SDS011;65814;51.134;16.980;2023-03-31T15:07:34;11.50;;;7.80;;
76848;SDS011;65814;51.134;16.980;2023-03-31T15:10:03;9.30;;;7.00;;
76848;SDS011;65814;51.134;16.980;2023-03-31T15:12:32;11.50;;;6.20;;
76848;SDS011;65814;51.134;16.980;2023-03-31T15:15:02;10.80;;;6.00;;
76848;SDS011;65814;51.134;16.980;2023-03-31T15:17:35;9.40;;;5.40;;
76848;SDS011;65814;51.134;16.980;2023-03-31T15:23:04;9.70;;;5.40;;
76848;SDS011;65814;51.134;16.980;2023-03-31T15:25:58;7.50;;;4.40;;
76848;SDS011;65814;51.134;16.980;2023-03-31T15:28:37;7.90;;;5.50;;
76848;SDS011;65814;51.134;16.980;2023-03-31T15:31:07;8.60;;;5.50;;
76848;SDS011;65814;51.134;16.980;2023-03-31T15:33:38;6.80;;;4.40;;
76848;SDS011;65814;51.134;16.980;2023-03-31T15:36:12;7.70;;;4.10;;
76848;SDS011;65814;51.134;16.980;2023-03-31T15:38:41;7.10;;;4.30;;
76848;SDS011;65814;51.134;16.980;2023-03-31T15:41:10;6.80;;;5.20;;
76848;SDS011;65814;51.134;16.980;2023-03-31T15:43:47;6.60;;;4.20;;
76848;SDS011;65814;51.134;16.980;2023-03-31T15:46:47;6.70;;;4.20;;
76848;SDS011;65814;51.134;16.980;2023-03-31T15:49:20;5.40;;;4.30;;
76848;SDS011;65814;51.134;16.980;2023-03-31T15:51:49;6.50;;;3.70;;
76848;SDS011;65814;51.134;16.980;2023-03-31T15:54:27;4.80;;;3.20;;
76848;SDS011;65814;51.134;16.980;2023-03-31T15:57:07;5.40;;;3.80;;
76848;SDS011;65814;51.134;16.980;2023-03-31T15:59:51;5.10;;;4.10;;
76848;SDS011;65814;51.134;16.980;2023-03-31T16:02:24;5.80;;;3.10;;
76848;SDS011;65814;51.134;16.980;2023-03-31T16:04:54;5.60;;;3.50;;
76848;SDS011;65814;51.134;16.980;2023-03-31T16:07:25;4.90;;;3.20;;
76848;SDS011;65814;51.134;16.980;2023-03-31T16:15:06;8.20;;;4.10;;
76848;SDS011;65814;51.134;16.980;2023-03-31T16:17:37;7.70;;;3.50;;
76848;SDS011;65814;51.134;16.980;2023-03-31T16:20:15;5.00;;;3.50;;
76848;SDS011;65814;51.134;16.980;2023-03-31T16:22:49;8.80;;;3.70;;
76848;SDS011;65814;51.134;16.980;2023-03-31T16:25:20;6.90;;;3.50;;
76848;SDS011;65814;51.134;16.980;2023-03-31T16:27:51;5.50;;;3.10;;
76848;SDS011;65814;51.134;16.980;2023-03-31T16:30:34;4.70;;;3.00;;
76848;SDS011;65814;51.134;16.980;2023-03-31T16:33:06;7.00;;;2.80;;
76848;SDS011;65814;51.134;16.980;2023-03-31T16:35:36;6.20;;;3.50;;
76848;SDS011;65814;51.134;16.980;2023-03-31T16:38:07;6.80;;;3.20;;
76848;SDS011;65814;51.134;16.980;2023-03-31T16:40:37;5.60;;;3.40;;
76848;SDS011;65814;51.134;16.980;2023-03-31T16:43:14;5.80;;;3.10;;
76848;SDS011;65814;51.134;16.980;2023-03-31T16:45:49;7.50;;;3.40;;
76848;SDS011;65814;51.134;16.980;2023-03-31T16:48:19;8.20;;;3.70;;
76848;SDS011;65814;51.134;16.980;2023-03-31T16:50:49;6.80;;;3.50;;
76848;SDS011;65814;51.134;16.980;2023-03-31T16:53:20;8.20;;;3.80;;
76848;SDS011;65814;51.134;16.980;2023-03-31T16:55:49;6.00;;;3.50;;
76848;SDS011;65814;51.134;16.980;2023-03-31T16:58:18;6.10;;;3.20;;
76848;SDS011;65814;51.134;16.980;2023-03-31T17:00:46;5.40;;;3.40;;
76848;SDS011;65814;51.134;16.980;2023-03-31T17:03:15;3.90;;;3.30;;
76848;SDS011;65814;51.134;16.980;2023-03-31T17:05:47;5.80;;;3.40;;
76848;SDS011;65814;51.134;16.980;2023-03-31T17:08:20;6.20;;;3.60;;
76848;SDS011;65814;51.134;16.980;2023-03-31T17:10:50;6.60;;;3.30;;
76848;SDS011;65814;51.134;16.980;2023-03-31T17:13:20;6.30;;;3.50;;
76848;SDS011;65814;51.134;16.980;2023-03-31T17:15:48;6.60;;;3.40;;
76848;SDS011;65814;51.134;16.980;2023-03-31T17:18:22;7.20;;;3.40;;
76848;SDS011;65814;51.134;16.980;2023-03-31T17:20:50;8.50;;;4.40;;
76848;SDS011;65814;51.134;16.980;2023-03-31T17:23:20;4.80;;;3.30;;
76848;SDS011;65814;51.134;16.980;2023-03-31T17:25:49;5.70;;;3.50;;
76848;SDS011;65814;51.134;16.980;2023-03-31T17:28:18;15.70;;;5.20;;
76848;SDS011;65814;51.134;16.980;2023-03-31T17:30:46;6.60;;;4.00;;
76848;SDS011;65814;51.134;16.980;2023-03-31T17:33:15;7.40;;;4.30;;